createdAt,value
2023-01-12T00:02:15.807Z,4.55
2023-01-12T00:04:43.897Z,4.49
2023-01-12T00:07:13.584Z,4.60
2023-01-12T00:09:41.836Z,4.45
2023-01-12T00:12:12.136Z,4.39
2023-01-12T00:14:40.445Z,4.43
2023-01-12T00:17:11.834Z,3.74
2023-01-12T00:19:41.201Z,4.45
2023-01-12T00:22:12.077Z,3.86
2023-01-12T00:24:42.180Z,4.32
2023-01-12T00:27:12.133Z,4.00
2023-01-12T00:29:40.227Z,4.30
2023-01-12T00:32:12.465Z,3.87
2023-01-12T00:34:41.528Z,4.05
2023-01-12T00:37:09.485Z,4.03
2023-01-12T00:39:40.769Z,3.97
2023-01-12T00:42:31.473Z,3.99
2023-01-12T00:45:16.825Z,3.68
2023-01-12T00:47:44.731Z,3.93
2023-01-12T00:50:13.733Z,3.84
2023-01-12T00:52:41.423Z,3.59
2023-01-12T00:55:09.795Z,3.88
2023-01-12T00:57:37.556Z,3.27
2023-01-12T01:00:28.976Z,3.72
2023-01-12T01:02:56.650Z,3.59
2023-01-12T01:05:25.667Z,3.73
2023-01-12T01:07:53.438Z,3.06
2023-01-12T01:10:21.208Z,3.82
2023-01-12T01:12:48.955Z,3.63
2023-01-12T01:15:16.659Z,3.14
2023-01-12T01:17:44.364Z,3.26
2023-01-12T01:20:12.978Z,3.61
2023-01-12T01:22:42.164Z,3.59
2023-01-12T01:25:10.539Z,3.30
2023-01-12T01:27:38.242Z,3.53
2023-01-12T01:30:07.020Z,3.22
2023-01-12T01:32:34.695Z,2.74
2023-01-12T01:35:04.829Z,3.48
2023-01-12T01:37:32.509Z,2.70
2023-01-12T01:40:01.535Z,3.50
2023-01-12T01:42:29.185Z,2.64
2023-01-12T01:44:58.723Z,3.33
2023-01-12T01:47:31.169Z,3.49
2023-01-12T01:50:02.182Z,3.09
2023-01-12T01:52:34.237Z,2.70
2023-01-12T01:55:08.652Z,2.75
2023-01-12T01:57:43.585Z,2.59
2023-01-12T02:00:13.106Z,3.42
2023-01-12T02:02:43.654Z,3.35
2023-01-12T02:05:12.616Z,3.35
2023-01-12T02:07:41.669Z,2.57
2023-01-12T02:10:11.930Z,3.46
2023-01-12T02:12:57.411Z,3.34
2023-01-12T02:15:45.172Z,3.21
2023-01-12T02:18:21.513Z,2.82
2023-01-12T02:21:00.820Z,2.73
2023-01-12T02:24:03.167Z,3.16
2023-01-12T02:27:07.645Z,3.10
2023-01-12T02:30:15.774Z,2.79
2023-01-12T02:32:54.664Z,2.81
2023-01-12T02:35:28.176Z,2.92
2023-01-12T02:38:04.644Z,2.78
2023-01-12T02:40:37.999Z,3.04
2023-01-12T02:43:10.288Z,2.93
2023-01-12T02:45:48.740Z,2.50
2023-01-12T02:48:23.726Z,2.76
2023-01-12T02:50:57.183Z,2.71
2023-01-12T02:53:31.057Z,1.73
2023-01-12T02:56:03.195Z,2.53
2023-01-12T02:58:35.716Z,2.32
2023-01-12T03:01:05.450Z,2.67
2023-01-12T03:03:36.051Z,2.67
2023-01-12T03:06:07.268Z,2.49
2023-01-12T03:08:38.756Z,2.27
2023-01-12T03:11:13.247Z,2.50
2023-01-12T03:13:45.880Z,2.30
2023-01-12T03:16:16.046Z,2.14
2023-01-12T03:18:51.652Z,1.74
2023-01-12T03:21:26.898Z,1.76
2023-01-12T03:23:58.175Z,2.54
2023-01-12T03:26:28.200Z,2.05
2023-01-12T03:29:01.056Z,2.32
2023-01-12T03:31:28.966Z,2.18
2023-01-12T03:34:00.001Z,2.27
2023-01-12T03:36:40.968Z,1.77
2023-01-12T03:39:15.156Z,1.62
2023-01-12T03:41:52.239Z,1.87
2023-01-12T03:44:28.294Z,2.14
2023-01-12T03:47:00.484Z,2.34
2023-01-12T03:49:35.739Z,1.91
2023-01-12T03:52:06.490Z,2.05
2023-01-12T03:54:38.399Z,1.99
2023-01-12T03:57:08.039Z,1.52
2023-01-12T03:59:36.363Z,2.03
2023-01-12T04:02:06.782Z,1.92
2023-01-12T04:04:35.879Z,1.24
2023-01-12T04:07:03.547Z,0.96
2023-01-12T04:09:31.220Z,1.20
2023-01-12T04:12:13.872Z,1.25
2023-01-12T04:14:45.141Z,1.70
2023-01-12T04:17:14.843Z,1.24
2023-01-12T04:19:44.311Z,1.58
2023-01-12T04:22:33.671Z,1.74
2023-01-12T04:25:01.384Z,1.65
2023-01-12T04:27:29.044Z,1.76
2023-01-12T04:29:56.695Z,1.70
2023-01-12T04:32:24.383Z,0.94
2023-01-12T04:34:53.420Z,1.55
2023-01-12T04:37:21.474Z,0.55
2023-01-12T04:39:49.153Z,1.58
2023-01-12T04:42:34.398Z,0.44
2023-01-12T04:45:02.026Z,0.88
2023-01-12T04:47:29.667Z,1.59
2023-01-12T04:49:58.663Z,0.42
2023-01-12T04:52:26.313Z,1.57
2023-01-12T04:54:56.179Z,1.40
2023-01-12T04:57:24.460Z,1.22
2023-01-12T04:59:52.076Z,1.76
2023-01-12T05:02:19.768Z,0.91
2023-01-12T05:04:47.932Z,1.90
2023-01-12T05:07:17.864Z,1.82
2023-01-12T05:10:02.877Z,1.80
2023-01-12T05:12:30.520Z,2.30
2023-01-12T05:14:58.182Z,2.43
2023-01-12T05:17:25.949Z,2.18
2023-01-12T05:19:53.621Z,1.44
2023-01-12T05:22:22.628Z,2.26
2023-01-12T05:24:50.264Z,1.08
2023-01-12T05:27:18.075Z,2.16
2023-01-12T05:29:45.759Z,1.38
2023-01-12T05:32:13.438Z,2.02
2023-01-12T05:34:54.424Z,2.50
2023-01-12T05:37:23.457Z,2.39
2023-01-12T05:39:51.172Z,1.17
2023-01-12T05:42:36.243Z,2.53
2023-01-12T05:45:03.964Z,2.49
2023-01-12T05:47:31.610Z,2.51
2023-01-12T05:49:59.261Z,1.74
2023-01-12T05:52:29.320Z,2.38
2023-01-12T05:54:57.034Z,2.14
2023-01-12T05:57:24.707Z,1.76
2023-01-12T05:59:52.374Z,2.51
2023-01-12T06:02:21.636Z,2.63
2023-01-12T06:04:49.551Z,2.72
2023-01-12T06:07:17.479Z,2.74
2023-01-12T06:09:46.512Z,2.18
2023-01-12T06:12:32.172Z,2.70
2023-01-12T06:14:59.807Z,2.37
2023-01-12T06:17:27.535Z,1.85
2023-01-12T06:19:55.239Z,2.16
2023-01-12T06:22:22.976Z,2.49
2023-01-12T06:24:52.041Z,2.49
2023-01-12T06:27:19.728Z,2.29
2023-01-12T06:29:47.721Z,1.43
2023-01-12T06:32:15.622Z,2.19
2023-01-12T06:34:43.298Z,2.46
2023-01-12T06:37:13.014Z,2.66
2023-01-12T06:39:40.667Z,2.57
2023-01-12T06:42:28.465Z,1.90
2023-01-12T06:44:56.319Z,2.94
2023-01-12T06:47:24.092Z,2.20
2023-01-12T06:49:52.515Z,2.91
2023-01-12T06:52:21.526Z,3.01
2023-01-12T06:54:49.488Z,2.25
2023-01-12T06:57:18.746Z,2.60
2023-01-12T06:59:46.419Z,2.27
2023-01-12T07:02:17.148Z,2.82
2023-01-12T07:04:44.946Z,2.88
2023-01-12T07:07:12.655Z,2.94
2023-01-12T07:09:40.423Z,2.72
2023-01-12T07:12:08.433Z,2.46
2023-01-12T07:14:37.458Z,3.12
2023-01-12T07:17:05.165Z,2.81
2023-01-12T07:19:32.830Z,2.67
2023-01-12T07:22:00.508Z,3.18
2023-01-12T07:24:28.226Z,2.79
2023-01-12T07:26:58.158Z,2.53
2023-01-12T07:29:26.116Z,3.24
2023-01-12T07:31:55.166Z,2.72
2023-01-12T07:34:23.111Z,2.82
2023-01-12T07:36:51.200Z,2.98
2023-01-12T07:39:19.165Z,3.27
2023-01-12T07:42:04.395Z,3.00
2023-01-12T07:44:32.051Z,3.39
2023-01-12T07:47:01.057Z,3.06
2023-01-12T07:49:29.883Z,3.17
2023-01-12T07:52:53.344Z,3.26
2023-01-12T07:56:19.116Z,3.44
2023-01-12T07:58:48.736Z,3.60
2023-01-12T08:01:16.441Z,3.48
2023-01-12T08:03:46.506Z,3.44
2023-01-12T08:06:14.144Z,3.35
2023-01-12T08:08:42.354Z,3.57
2023-01-12T08:11:11.735Z,3.63
2023-01-12T08:13:40.960Z,3.98
2023-01-12T08:16:22.859Z,3.95
2023-01-12T08:18:56.860Z,3.33
2023-01-12T08:21:34.491Z,3.96
2023-01-12T08:24:06.111Z,3.44
2023-01-12T08:26:38.440Z,3.70
2023-01-12T08:29:12.933Z,4.05
2023-01-12T08:31:41.429Z,3.77
2023-01-12T08:34:11.402Z,4.37
2023-01-12T08:36:44.048Z,3.87
2023-01-12T08:39:12.427Z,4.11
2023-01-12T08:41:42.232Z,3.69
2023-01-12T08:44:10.993Z,4.27
2023-01-12T08:46:40.525Z,4.55
2023-01-12T08:49:16.777Z,4.41
2023-01-12T08:51:45.248Z,4.40
2023-01-12T08:54:14.939Z,4.54
2023-01-12T08:56:42.885Z,3.79
2023-01-12T08:59:10.990Z,4.14
2023-01-12T09:01:39.706Z,4.25
2023-01-12T09:04:07.529Z,4.37
2023-01-12T09:06:39.780Z,4.92
2023-01-12T09:09:09.867Z,4.68
2023-01-12T09:11:41.877Z,4.82
2023-01-12T09:14:09.840Z,3.89
2023-01-12T09:16:37.630Z,4.79
2023-01-12T09:19:05.353Z,4.78
2023-01-12T09:21:34.120Z,4.15
2023-01-12T09:24:03.337Z,4.99
2023-01-12T09:26:33.617Z,5.18
2023-01-12T09:29:02.243Z,5.10
2023-01-12T09:31:31.462Z,5.28
2023-01-12T09:33:59.837Z,5.29
2023-01-12T09:36:28.943Z,5.31
2023-01-12T09:38:57.127Z,4.79
2023-01-12T09:41:46.508Z,4.88
2023-01-12T09:44:36.631Z,5.42
2023-01-12T09:47:08.308Z,5.51
2023-01-12T09:49:40.470Z,5.02
2023-01-12T09:52:16.686Z,4.81
2023-01-12T09:54:48.208Z,5.24
2023-01-12T09:57:44.105Z,5.41
2023-01-12T10:00:14.292Z,6.02
2023-01-12T10:02:46.146Z,5.71
2023-01-12T10:05:23.778Z,6.07
2023-01-12T10:07:55.461Z,5.25
2023-01-12T10:10:27.117Z,5.87
2023-01-12T10:13:01.352Z,6.11
2023-01-12T10:15:41.605Z,5.81
2023-01-12T10:18:18.266Z,6.00
2023-01-12T10:20:46.661Z,5.47
2023-01-12T10:23:16.943Z,5.71
2023-01-12T10:25:47.545Z,6.15
2023-01-12T10:28:24.472Z,6.10
2023-01-12T10:30:56.126Z,6.11
2023-01-12T10:33:26.289Z,6.24
2023-01-12T10:36:00.158Z,5.90
2023-01-12T10:38:31.398Z,5.50
2023-01-12T10:41:12.230Z,5.52
2023-01-12T10:43:42.297Z,6.15
2023-01-12T10:46:15.278Z,6.14
2023-01-12T10:48:45.426Z,5.91
2023-01-12T10:51:28.592Z,6.24
2023-01-12T10:53:59.188Z,6.51
2023-01-12T10:56:35.510Z,6.53
2023-01-12T10:59:08.195Z,5.96
2023-01-12T11:01:47.080Z,6.59
2023-01-12T11:04:17.443Z,6.48
2023-01-12T11:06:47.360Z,6.65
2023-01-12T11:09:20.249Z,6.88
2023-01-12T11:11:48.043Z,6.80
2023-01-12T11:14:27.121Z,6.62
2023-01-12T11:16:54.929Z,6.75
2023-01-12T11:19:28.218Z,6.71
2023-01-12T11:22:01.224Z,6.25
2023-01-12T11:24:36.603Z,6.57
2023-01-12T11:27:11.964Z,6.75
2023-01-12T11:29:50.386Z,6.48
2023-01-12T11:32:25.643Z,6.69
2023-01-12T11:34:58.524Z,6.68
2023-01-12T11:37:26.207Z,6.12
2023-01-12T11:40:04.057Z,6.68
2023-01-12T11:42:50.275Z,6.19
2023-01-12T11:45:23.130Z,6.76
2023-01-12T11:47:55.887Z,6.20
2023-01-12T11:50:28.635Z,6.83
2023-01-12T11:52:56.948Z,6.55
2023-01-12T11:55:49.959Z,6.71
2023-01-12T11:58:26.103Z,6.41
2023-01-12T12:01:07.013Z,6.11
2023-01-12T12:03:59.441Z,6.79
2023-01-12T12:06:56.215Z,6.79
2023-01-12T12:09:40.153Z,6.81
2023-01-12T12:12:17.050Z,6.56
2023-01-12T12:14:59.403Z,6.56
2023-01-12T12:17:43.245Z,6.84
2023-01-12T12:20:23.627Z,6.28
2023-01-12T12:23:05.351Z,6.77
2023-01-12T12:25:42.438Z,6.35
2023-01-12T12:28:21.929Z,6.49
2023-01-12T12:31:05.088Z,6.81
2023-01-12T12:34:12.868Z,6.82
2023-01-12T12:36:46.945Z,6.77
2023-01-12T12:39:35.097Z,6.71
2023-01-12T12:42:32.989Z,6.89
2023-01-12T12:45:17.950Z,6.66
2023-01-12T12:47:58.896Z,6.76
2023-01-12T12:50:30.833Z,6.79
2023-01-12T12:53:07.151Z,6.86
2023-01-12T12:55:37.469Z,6.56
2023-01-12T12:58:29.190Z,6.95
2023-01-12T13:01:43.669Z,6.72
2023-01-12T13:04:14.469Z,6.80
2023-01-12T13:06:48.410Z,6.40
2023-01-12T13:09:40.551Z,6.54
2023-01-12T13:12:21.187Z,6.88
2023-01-12T13:15:18.319Z,6.75
2023-01-12T13:17:48.811Z,6.86
2023-01-12T13:20:52.150Z,6.66
2023-01-12T13:23:56.647Z,6.63
2023-01-12T13:26:42.989Z,6.83
2023-01-12T13:29:36.048Z,6.70
2023-01-12T13:32:36.921Z,6.68
2023-01-12T13:35:23.013Z,6.16
2023-01-12T13:37:59.188Z,6.71
2023-01-12T13:40:29.268Z,6.72
2023-01-12T13:43:16.529Z,6.57
2023-01-12T13:45:53.178Z,6.50
2023-01-12T13:48:21.759Z,6.63
2023-01-12T13:50:52.419Z,6.51
2023-01-12T13:53:28.679Z,6.46
2023-01-12T13:55:59.324Z,6.40
2023-01-12T13:58:27.427Z,6.21
2023-01-12T14:00:58.131Z,6.26
2023-01-12T14:03:52.426Z,6.51
2023-01-12T14:06:30.869Z,6.32
2023-01-12T14:09:14.301Z,6.41
2023-01-12T14:12:07.709Z,6.32
2023-01-12T14:15:11.417Z,6.52
2023-01-12T14:17:53.448Z,6.41
2023-01-12T14:20:23.125Z,6.38
2023-01-12T14:23:06.081Z,6.44
2023-01-12T14:25:35.063Z,6.34
2023-01-12T14:28:02.738Z,5.84
2023-01-12T14:30:30.718Z,6.04
2023-01-12T14:32:58.674Z,6.05
2023-01-12T14:35:26.996Z,6.27
2023-01-12T14:37:58.622Z,5.79
2023-01-12T14:40:30.129Z,5.92
2023-01-12T14:43:18.127Z,6.27
2023-01-12T14:46:14.482Z,6.24
2023-01-12T14:48:43.954Z,6.08
2023-01-12T14:51:19.590Z,6.38
2023-01-12T14:53:49.005Z,6.32
2023-01-12T14:56:20.951Z,6.39
2023-01-12T14:58:50.243Z,6.29
2023-01-12T15:01:33.575Z,6.24
2023-01-12T15:04:01.800Z,6.32
2023-01-12T15:06:29.568Z,6.31
2023-01-12T15:09:00.273Z,6.19
2023-01-12T15:11:36.494Z,6.30
2023-01-12T15:14:07.280Z,5.66
2023-01-12T15:16:52.420Z,6.30
2023-01-12T15:19:37.652Z,6.35
2023-01-12T15:22:27.713Z,6.17
2023-01-12T15:25:14.345Z,5.81
2023-01-12T15:27:41.973Z,6.11
2023-01-12T15:30:12.796Z,6.04
2023-01-12T15:32:48.017Z,5.90
2023-01-12T15:35:21.054Z,6.02
2023-01-12T15:37:48.815Z,5.69
2023-01-12T15:40:17.666Z,6.31
2023-01-12T15:42:45.518Z,5.88
2023-01-12T15:45:29.254Z,6.04
2023-01-12T15:47:58.079Z,5.81
2023-01-12T15:50:25.817Z,5.97
2023-01-12T15:52:53.988Z,6.13
2023-01-12T15:55:23.597Z,6.04
2023-01-12T15:57:52.207Z,6.06
2023-01-12T16:00:23.613Z,5.73
2023-01-12T16:02:52.311Z,6.22
2023-01-12T16:05:22.153Z,6.19
2023-01-12T16:07:49.927Z,5.81
2023-01-12T16:10:18.755Z,6.11
2023-01-12T16:12:47.861Z,5.96
2023-01-12T16:15:19.083Z,6.26
2023-01-12T16:17:49.020Z,6.23
2023-01-12T16:20:18.475Z,6.26
2023-01-12T16:22:47.532Z,6.27
2023-01-12T16:25:16.119Z,6.16
2023-01-12T16:27:43.966Z,5.90
2023-01-12T16:30:15.210Z,6.19
2023-01-12T16:32:46.225Z,6.01
2023-01-12T16:35:16.578Z,6.28
2023-01-12T16:37:44.567Z,6.25
2023-01-12T16:40:13.453Z,6.10
2023-01-12T16:42:41.067Z,5.93
2023-01-12T16:45:09.812Z,5.71
2023-01-12T16:47:37.425Z,5.85
2023-01-12T16:50:05.666Z,5.61
2023-01-12T16:52:34.779Z,6.22
2023-01-12T16:55:02.406Z,6.24
2023-01-12T16:57:29.999Z,5.64
2023-01-12T16:59:57.659Z,6.22
2023-01-12T17:02:25.767Z,6.19
2023-01-12T17:04:53.676Z,5.99
2023-01-12T17:07:21.453Z,6.09
2023-01-12T17:09:50.488Z,6.14
2023-01-12T17:12:18.613Z,5.91
2023-01-12T17:14:46.783Z,6.10
2023-01-12T17:17:14.531Z,6.12
2023-01-12T17:19:43.517Z,6.11
2023-01-12T17:22:12.329Z,6.20
2023-01-12T17:24:41.483Z,6.11
2023-01-12T17:27:12.765Z,6.15
2023-01-12T17:29:40.804Z,6.02
2023-01-12T17:32:08.768Z,6.12
2023-01-12T17:34:38.668Z,6.20
2023-01-12T17:37:08.277Z,5.80
2023-01-12T17:39:37.287Z,6.01
2023-01-12T17:42:31.939Z,5.71
2023-01-12T17:45:01.848Z,5.95
2023-01-12T17:47:29.586Z,5.88
2023-01-12T17:49:57.290Z,6.07
2023-01-12T17:52:24.982Z,6.09
2023-01-12T17:54:53.103Z,5.93
2023-01-12T17:57:20.853Z,6.17
2023-01-12T17:59:49.844Z,6.16
2023-01-12T18:02:19.063Z,6.18
2023-01-12T18:04:47.130Z,5.64
2023-01-12T18:07:14.875Z,5.58
2023-01-12T18:09:42.882Z,5.58
2023-01-12T18:12:12.386Z,5.84
2023-01-12T18:14:40.188Z,5.78
2023-01-12T18:17:09.177Z,5.61
2023-01-12T18:19:39.280Z,5.90
2023-01-12T18:22:07.493Z,5.69
2023-01-12T18:24:35.627Z,5.92
2023-01-12T18:27:03.794Z,6.00
2023-01-12T18:29:31.482Z,5.90
2023-01-12T18:31:59.184Z,5.38
2023-01-12T18:34:26.863Z,5.88
2023-01-12T18:36:55.906Z,5.74
2023-01-12T18:39:23.558Z,5.99
2023-01-12T18:42:09.276Z,6.00
2023-01-12T18:44:37.960Z,6.10
2023-01-12T18:47:23.843Z,6.14
2023-01-12T18:49:51.812Z,6.15
2023-01-12T18:52:38.220Z,5.78
2023-01-12T18:55:07.197Z,6.10
2023-01-12T18:57:35.812Z,6.19
2023-01-12T19:00:13.558Z,6.24
2023-01-12T19:02:41.460Z,6.15
2023-01-12T19:05:22.049Z,6.05
2023-01-12T19:08:04.317Z,5.98
2023-01-12T19:10:32.061Z,6.03
2023-01-12T19:13:13.745Z,5.94
2023-01-12T19:15:59.652Z,6.02
2023-01-12T19:18:27.916Z,5.84
2023-01-12T19:21:15.729Z,6.01
2023-01-12T19:24:04.652Z,5.98
2023-01-12T19:26:49.875Z,5.79
2023-01-12T19:29:17.525Z,5.84
2023-01-12T19:31:45.251Z,5.77
2023-01-12T19:34:12.903Z,5.89
2023-01-12T19:36:40.522Z,5.93
2023-01-12T19:39:10.443Z,5.91
2023-01-12T19:41:55.467Z,5.76
2023-01-12T19:44:23.195Z,5.77
2023-01-12T19:46:50.865Z,5.84
2023-01-12T19:49:18.696Z,5.83
2023-01-12T19:51:47.203Z,5.74
2023-01-12T19:54:19.450Z,5.44
2023-01-12T19:56:47.683Z,5.82
2023-01-12T19:59:15.312Z,5.82
2023-01-12T20:01:43.573Z,5.86
2023-01-12T20:04:11.459Z,5.82
2023-01-12T20:06:39.135Z,5.59
2023-01-12T20:09:06.792Z,5.53
2023-01-12T20:11:35.996Z,5.50
2023-01-12T20:14:03.722Z,5.43
2023-01-12T20:16:31.459Z,5.48
2023-01-12T20:18:59.519Z,5.16
2023-01-12T20:21:27.202Z,5.55
2023-01-12T20:23:54.915Z,5.44
2023-01-12T20:26:22.542Z,5.38
2023-01-12T20:28:51.523Z,5.29
2023-01-12T20:31:20.326Z,5.21
2023-01-12T20:33:48.641Z,5.30
2023-01-12T20:36:18.562Z,5.25
2023-01-12T20:38:46.932Z,5.32
2023-01-12T20:41:14.532Z,5.20
2023-01-12T20:43:42.139Z,5.18
2023-01-12T20:46:13.421Z,5.11
2023-01-12T20:48:42.134Z,4.75
2023-01-12T20:51:11.367Z,5.19
2023-01-12T20:53:39.711Z,5.23
2023-01-12T20:56:08.257Z,5.20
2023-01-12T20:58:36.503Z,5.21
2023-01-12T21:01:11.202Z,5.14
2023-01-12T21:03:39.337Z,5.17
2023-01-12T21:06:09.893Z,5.06
2023-01-12T21:08:38.882Z,4.91
2023-01-12T21:11:07.134Z,4.79
2023-01-12T21:13:34.833Z,4.79
2023-01-12T21:16:04.080Z,4.67
2023-01-12T21:18:34.447Z,4.65
2023-01-12T21:21:02.355Z,4.70
2023-01-12T21:23:29.951Z,4.62
2023-01-12T21:25:59.124Z,4.53
2023-01-12T21:28:29.257Z,4.61
2023-01-12T21:31:01.208Z,4.65
2023-01-12T21:33:28.912Z,4.42
2023-01-12T21:35:58.610Z,4.72
2023-01-12T21:38:27.489Z,4.72
2023-01-12T21:40:56.022Z,4.67
2023-01-12T21:43:22.797Z,4.61
2023-01-12T21:45:54.909Z,4.67
2023-01-12T21:48:23.989Z,4.70
2023-01-12T21:50:51.705Z,4.88
2023-01-12T21:53:22.845Z,5.01
2023-01-12T21:55:55.357Z,5.11
2023-01-12T21:58:23.270Z,5.33
2023-01-12T22:00:51.301Z,5.38
2023-01-12T22:03:19.014Z,5.34
2023-01-12T22:05:47.795Z,5.33
2023-01-12T22:08:15.422Z,5.61
2023-01-12T22:10:44.487Z,5.56
2023-01-12T22:13:14.661Z,5.66
2023-01-12T22:15:43.198Z,5.46
2023-01-12T22:18:11.166Z,5.71
2023-01-12T22:20:39.308Z,4.67
2023-01-12T22:23:07.520Z,4.45
2023-01-12T22:25:35.244Z,5.18
2023-01-12T22:28:04.480Z,4.78
2023-01-12T22:30:32.267Z,5.52
2023-01-12T22:32:59.928Z,4.24
2023-01-12T22:35:27.620Z,5.73
2023-01-12T22:37:55.785Z,6.00
2023-01-12T22:40:23.573Z,4.74
2023-01-12T22:43:08.591Z,5.69
2023-01-12T22:45:38.233Z,5.50
2023-01-12T22:48:06.579Z,5.72
2023-01-12T22:50:34.277Z,5.84
2023-01-12T22:53:01.910Z,6.01
2023-01-12T22:55:29.629Z,6.13
2023-01-12T22:57:57.329Z,5.88
2023-01-12T23:00:25.425Z,6.34
2023-01-12T23:03:03.480Z,5.58
2023-01-12T23:05:35.908Z,6.33
2023-01-12T23:08:04.832Z,6.29
2023-01-12T23:10:32.764Z,6.24
2023-01-12T23:13:16.018Z,6.30
2023-01-12T23:15:47.311Z,5.71
2023-01-12T23:18:19.945Z,5.31
2023-01-12T23:20:49.288Z,6.38
2023-01-12T23:23:18.615Z,6.48
2023-01-12T23:25:47.273Z,6.41
2023-01-12T23:28:15.923Z,6.38
2023-01-12T23:30:44.020Z,5.87
2023-01-12T23:33:12.137Z,6.56
2023-01-12T23:35:43.007Z,6.41
2023-01-12T23:38:15.619Z,6.48
2023-01-12T23:40:43.442Z,6.33
2023-01-12T23:43:11.326Z,5.63
2023-01-12T23:45:39.090Z,6.56
2023-01-12T23:48:08.263Z,6.59
2023-01-12T23:50:36.092Z,6.01
2023-01-12T23:53:05.664Z,5.52
2023-01-12T23:55:33.477Z,5.83
2023-01-12T23:58:02.323Z,6.62
